Time;durP1;ratioP1;P1;durP2;ratioP2;P2;SDS_P1;SDS_P2;PMS_P1;PMS_P2;Temp;Humidity;BMP_temperature;BMP_pressure;BME280_temperature;BME280_humidity;BME280_pressure;Samples;Min_cycle;Max_cycle;Signal;HPM_P1;HPM_P2
2023/10/27 00:02:14;;;;;;;10.45;2.63;;;19.50;96.70;;;;;;5001258;28;20046;-77
2023/10/27 00:04:42;;;;;;;13.30;2.75;;;19.70;96.70;;;;;;5019624;28;20048;-78
2023/10/27 00:07:10;;;;;;;18.85;4.00;;;19.90;96.70;;;;;;5014717;28;20042;-77
2023/10/27 00:09:38;;;;;;;19.80;3.53;;;20.20;96.70;;;;;;5004688;28;20042;-78
2023/10/27 00:12:06;;;;;;;16.52;3.67;;;20.40;96.70;;;;;;5007689;28;20571;-78
2023/10/27 00:14:34;;;;;;;18.67;3.00;;;20.40;96.70;;;;;;5030420;28;20046;-77
2023/10/27 00:17:04;;;;;;;16.13;3.75;;;20.50;96.70;;;;;;5012299;28;20132;-77
2023/10/27 00:19:32;;;;;;;15.75;4.00;;;20.50;96.70;;;;;;5010469;28;20041;-78
2023/10/27 00:22:00;;;;;;;17.33;3.17;;;20.50;96.70;;;;;;4993763;28;20145;-77
2023/10/27 00:24:28;;;;;;;15.23;2.92;;;20.50;96.70;;;;;;5005621;28;20573;-77
2023/10/27 00:26:56;;;;;;;15.48;3.40;;;20.60;96.70;;;;;;5013087;28;20794;-77
2023/10/27 00:29:24;;;;;;;16.85;3.40;;;20.60;96.70;;;;;;4996385;28;20141;-76
2023/10/27 00:31:52;;;;;;;21.08;3.55;;;20.70;96.70;;;;;;5005960;28;20512;-79
2023/10/27 00:34:21;;;;;;;19.13;3.35;;;20.70;96.70;;;;;;5017878;28;20057;-77
2023/10/27 00:36:49;;;;;;;17.85;3.42;;;20.70;96.70;;;;;;5007010;28;20050;-77
2023/10/27 00:39:17;;;;;;;20.77;3.80;;;20.60;96.70;;;;;;5004051;28;20042;-78
2023/10/27 00:41:45;;;;;;;16.58;3.40;;;20.60;96.70;;;;;;5005739;28;20049;-77
2023/10/27 00:44:13;;;;;;;13.25;2.95;;;20.70;96.70;;;;;;5005553;28;20042;-78
2023/10/27 00:46:42;;;;;;;17.00;3.45;;;20.70;96.70;;;;;;5004944;28;21533;-78
2023/10/27 00:49:09;;;;;;;18.25;3.60;;;20.70;96.70;;;;;;5003230;28;20132;-78
2023/10/27 00:51:39;;;;;;;16.92;3.13;;;20.70;96.70;;;;;;5003472;28;20141;-77
2023/10/27 00:54:11;;;;;;;18.08;3.88;;;20.70;96.70;;;;;;4985774;28;20054;-77
2023/10/27 00:56:39;;;;;;;15.55;3.22;;;20.70;96.70;;;;;;5003469;28;20054;-77
2023/10/27 00:59:08;;;;;;;24.63;3.92;;;20.80;96.70;;;;;;5003418;28;20042;-78
2023/10/27 01:01:36;;;;;;;18.23;3.95;;;20.80;96.70;;;;;;5003270;28;20080;-78
2023/10/27 01:04:05;;;;;;;18.55;4.65;;;20.80;96.70;;;;;;5004017;28;20042;-77
2023/10/27 01:06:33;;;;;;;16.02;3.45;;;20.80;96.70;;;;;;5003577;28;20054;-77
2023/10/27 01:09:02;;;;;;;15.18;3.80;;;20.80;96.70;;;;;;5003617;28;20133;-77
2023/10/27 01:11:32;;;;;;;17.52;3.60;;;20.90;96.70;;;;;;4995884;28;20491;-77
2023/10/27 01:14:00;;;;;;;21.77;3.60;;;20.90;96.70;;;;;;4993815;28;20649;-78
2023/10/27 01:16:28;;;;;;;20.23;3.65;;;20.90;96.70;;;;;;5005720;28;20398;-76
2023/10/27 01:18:56;;;;;;;19.75;4.40;;;20.80;96.70;;;;;;5010684;28;20041;-77
2023/10/27 01:21:24;;;;;;;19.25;4.10;;;20.80;96.70;;;;;;5017892;28;20074;-77
2023/10/27 01:23:53;;;;;;;19.73;4.40;;;20.80;96.70;;;;;;5006656;28;20033;-77
2023/10/27 01:26:21;;;;;;;20.45;3.92;;;20.80;96.70;;;;;;5012163;28;20404;-77
2023/10/27 01:28:49;;;;;;;16.15;3.75;;;20.80;96.70;;;;;;5001369;28;20057;-77
2023/10/27 01:31:17;;;;;;;17.52;3.50;;;20.70;96.70;;;;;;4999454;28;20046;-77
2023/10/27 01:33:45;;;;;;;21.63;4.15;;;20.70;96.70;;;;;;5001126;28;20397;-77
2023/10/27 01:36:13;;;;;;;17.90;3.95;;;20.70;96.70;;;;;;5010502;28;20060;-77
2023/10/27 01:38:41;;;;;;;15.57;3.47;;;20.70;96.70;;;;;;5003063;28;20042;-76
2023/10/27 01:41:11;;;;;;;18.67;3.70;;;20.60;96.70;;;;;;5002951;28;20499;-77
2023/10/27 01:43:39;;;;;;;15.88;3.63;;;20.60;96.70;;;;;;4999020;28;20064;-78
2023/10/27 01:46:06;;;;;;;22.00;3.13;;;20.60;96.70;;;;;;5025618;28;20049;-77
2023/10/27 01:48:36;;;;;;;21.17;4.00;;;20.60;96.70;;;;;;5007811;28;20133;-78
2023/10/27 01:51:04;;;;;;;15.98;3.45;;;20.60;96.70;;;;;;5002895;28;20041;-77
2023/10/27 01:53:33;;;;;;;16.83;3.60;;;20.60;96.70;;;;;;5011444;28;20042;-77
2023/10/27 01:56:01;;;;;;;15.80;3.22;;;20.60;96.70;;;;;;5011638;28;20050;-77
2023/10/27 01:58:31;;;;;;;25.50;5.18;;;20.50;96.70;;;;;;5002629;28;20050;-76
2023/10/27 02:00:59;;;;;;;16.58;3.53;;;20.50;96.70;;;;;;5003581;28;20149;-77
2023/10/27 02:03:27;;;;;;;15.05;3.67;;;20.50;96.70;;;;;;5018904;28;20045;-77
2023/10/27 02:05:55;;;;;;;20.80;4.45;;;20.50;96.70;;;;;;5027270;28;20124;-76
2023/10/27 02:08:23;;;;;;;19.85;4.30;;;20.50;96.70;;;;;;5009735;28;20217;-76
2023/10/27 02:10:51;;;;;;;22.75;3.70;;;20.50;96.70;;;;;;5008908;28;20045;-77
2023/10/27 02:13:19;;;;;;;22.50;4.55;;;20.50;96.70;;;;;;5008849;28;20522;-76
2023/10/27 02:15:49;;;;;;;22.80;4.22;;;20.60;96.70;;;;;;5009351;28;20042;-77
2023/10/27 02:18:16;;;;;;;18.27;3.42;;;20.70;96.70;;;;;;5009048;28;20085;-77
2023/10/27 02:20:47;;;;;;;17.67;3.42;;;20.70;96.70;;;;;;5005004;28;20057;-77
2023/10/27 02:23:15;;;;;;;18.55;4.03;;;20.80;96.70;;;;;;5009529;28;20053;-77
2023/10/27 02:25:43;;;;;;;17.23;3.60;;;20.80;96.70;;;;;;5009206;28;20054;-77
2023/10/27 02:28:11;;;;;;;15.38;3.60;;;20.80;96.70;;;;;;5015051;28;20041;-77
2023/10/27 02:30:39;;;;;;;20.02;4.47;;;20.90;96.70;;;;;;5003999;28;20465;-78
2023/10/27 02:33:08;;;;;;;16.38;4.35;;;20.90;96.70;;;;;;5020141;28;20053;-77
2023/10/27 02:35:36;;;;;;;20.45;3.65;;;20.90;96.70;;;;;;5013412;28;20038;-77
2023/10/27 02:38:04;;;;;;;22.15;4.00;;;21.00;96.70;;;;;;5009323;28;20103;-76
2023/10/27 02:40:34;;;;;;;20.25;4.43;;;21.10;96.70;;;;;;5009257;28;20053;-78
2023/10/27 02:43:03;;;;;;;17.67;4.60;;;21.10;96.70;;;;;;5010388;28;20507;-77
2023/10/27 02:45:31;;;;;;;16.55;3.80;;;21.10;96.70;;;;;;5016348;28;20415;-77
2023/10/27 02:47:59;;;;;;;20.75;4.05;;;21.10;96.70;;;;;;5008867;28;20053;-77
2023/10/27 02:50:31;;;;;;;16.85;3.20;;;21.00;96.70;;;;;;5022577;28;20070;-77
2023/10/27 02:52:59;;;;;;;17.05;4.05;;;21.00;96.70;;;;;;5008727;28;20392;-76
2023/10/27 02:55:27;;;;;;;18.02;3.65;;;20.90;96.70;;;;;;5008947;28;20038;-76
2023/10/27 02:57:55;;;;;;;18.92;4.22;;;20.90;96.70;;;;;;5009157;28;20046;-77
2023/10/27 03:00:23;;;;;;;19.60;3.88;;;20.80;96.70;;;;;;5025182;28;20099;-77
2023/10/27 03:02:51;;;;;;;22.52;3.97;;;20.80;96.70;;;;;;5009074;28;20045;-78
2023/10/27 03:05:19;;;;;;;23.70;4.82;;;20.80;96.70;;;;;;5008452;28;20526;-76
2023/10/27 03:07:49;;;;;;;17.88;3.97;;;20.90;96.70;;;;;;5008530;28;20046;-77
2023/10/27 03:10:17;;;;;;;19.67;4.70;;;20.80;96.70;;;;;;5008876;28;20077;-77
2023/10/27 03:12:45;;;;;;;17.45;3.78;;;20.70;96.70;;;;;;5006913;28;20057;-78
2023/10/27 03:15:13;;;;;;;16.73;3.72;;;20.70;96.70;;;;;;5005482;28;20100;-77
2023/10/27 03:17:42;;;;;;;20.80;4.82;;;20.70;96.70;;;;;;5005256;28;20730;-77
2023/10/27 03:20:11;;;;;;;22.83;4.13;;;20.70;96.70;;;;;;4998185;28;20103;-77
2023/10/27 03:22:40;;;;;;;18.33;3.53;;;20.70;96.70;;;;;;4998467;28;20495;-77
2023/10/27 03:25:10;;;;;;;21.65;4.93;;;20.70;96.70;;;;;;5006809;28;20128;-77
2023/10/27 03:27:38;;;;;;;20.05;4.05;;;20.60;96.70;;;;;;5002686;28;20041;-77
2023/10/27 03:30:08;;;;;;;17.55;4.10;;;20.60;96.70;;;;;;5006329;28;20061;-76
2023/10/27 03:32:36;;;;;;;18.23;4.47;;;20.60;96.70;;;;;;5007254;28;20581;-77
2023/10/27 03:35:04;;;;;;;17.08;3.72;;;20.60;96.70;;;;;;5006292;28;20104;-76
2023/10/27 03:37:33;;;;;;;25.10;4.95;;;20.50;96.70;;;;;;5005437;28;20068;-77
2023/10/27 03:40:03;;;;;;;22.55;4.20;;;20.50;96.70;;;;;;5005087;28;20048;-77
2023/10/27 03:42:33;;;;;;;24.05;5.80;;;20.50;96.70;;;;;;5007327;28;20046;-76
2023/10/27 03:45:01;;;;;;;17.48;4.35;;;20.50;96.70;;;;;;4984451;28;20443;-76
2023/10/27 03:47:29;;;;;;;18.15;3.97;;;20.50;96.70;;;;;;5001731;28;20046;-77
2023/10/27 03:49:58;;;;;;;22.10;5.32;;;20.50;96.70;;;;;;5010281;28;20050;-77
2023/10/27 03:52:26;;;;;;;23.65;4.53;;;20.60;96.70;;;;;;5003203;28;20148;-78
2023/10/27 03:54:53;;;;;;;19.02;3.95;;;20.50;96.70;;;;;;5005224;28;20061;-77
2023/10/27 03:57:22;;;;;;;15.48;4.00;;;20.50;96.70;;;;;;5013365;28;20148;-78
2023/10/27 03:59:51;;;;;;;20.00;5.13;;;20.50;96.70;;;;;;5009482;28;20468;-79
2023/10/27 04:02:19;;;;;;;20.33;4.40;;;20.40;96.70;;;;;;5006165;28;20046;-78
2023/10/27 04:04:47;;;;;;;18.23;4.43;;;20.40;96.70;;;;;;5004762;28;20523;-77
2023/10/27 04:07:15;;;;;;;21.48;5.10;;;20.40;96.70;;;;;;5005823;28;20049;-78
2023/10/27 04:09:43;;;;;;;19.25;4.22;;;20.30;96.70;;;;;;5004697;28;20045;-78
2023/10/27 04:12:11;;;;;;;19.35;4.00;;;20.30;96.70;;;;;;5006031;28;20048;-78
2023/10/27 04:14:39;;;;;;;14.65;3.40;;;20.30;96.70;;;;;;5035166;28;20488;-77
2023/10/27 04:17:08;;;;;;;21.40;4.95;;;20.30;96.70;;;;;;5008563;28;20046;-78
2023/10/27 04:19:36;;;;;;;15.52;4.05;;;20.20;96.70;;;;;;5003978;28;20421;-77
2023/10/27 04:22:05;;;;;;;21.85;4.75;;;20.20;96.70;;;;;;5003624;28;20049;-77
2023/10/27 04:24:33;;;;;;;21.83;4.47;;;20.20;96.70;;;;;;5020531;28;20075;-77
2023/10/27 04:27:01;;;;;;;19.80;4.18;;;20.20;96.70;;;;;;5002030;28;20467;-78
2023/10/27 04:29:29;;;;;;;19.40;4.57;;;20.20;96.70;;;;;;5005119;28;20121;-78
2023/10/27 04:31:57;;;;;;;19.60;4.63;;;20.20;96.70;;;;;;5015708;28;20467;-77
2023/10/27 04:34:26;;;;;;;20.85;4.00;;;20.20;96.70;;;;;;5013827;28;20069;-77
2023/10/27 04:36:55;;;;;;;21.90;3.97;;;20.20;96.70;;;;;;5005638;28;20058;-77
2023/10/27 04:39:23;;;;;;;18.75;3.80;;;20.10;96.70;;;;;;5004083;28;20073;-77
2023/10/27 04:41:51;;;;;;;18.08;3.40;;;20.10;96.70;;;;;;5024857;28;20100;-77
2023/10/27 04:44:22;;;;;;;17.50;3.88;;;20.10;96.70;;;;;;5003817;28;20093;-77
2023/10/27 04:46:51;;;;;;;18.23;4.07;;;20.10;96.70;;;;;;5003757;28;20145;-77
2023/10/27 04:49:19;;;;;;;21.23;3.95;;;20.10;96.70;;;;;;5004944;28;20038;-77
2023/10/27 04:51:48;;;;;;;15.90;4.30;;;20.20;96.70;;;;;;5011360;28;20045;-77
2023/10/27 04:54:16;;;;;;;19.13;3.63;;;20.30;96.70;;;;;;5007591;28;20511;-77
2023/10/27 04:56:44;;;;;;;16.77;4.47;;;20.30;96.70;;;;;;5005779;28;20037;-77
2023/10/27 04:59:13;;;;;;;20.75;4.30;;;20.40;96.70;;;;;;5009672;28;20044;-77
2023/10/27 05:01:41;;;;;;;21.65;4.03;;;20.40;96.70;;;;;;5017142;28;20042;-77
2023/10/27 05:04:09;;;;;;;15.85;3.40;;;20.40;96.70;;;;;;5010302;28;20073;-77
2023/10/27 05:06:37;;;;;;;14.40;2.88;;;20.40;96.70;;;;;;5011329;28;20064;-77
2023/10/27 05:09:06;;;;;;;13.80;2.85;;;20.30;96.70;;;;;;5004889;28;20065;-77
2023/10/27 05:11:35;;;;;;;12.55;2.50;;;20.30;96.70;;;;;;5003319;28;20045;-77
2023/10/27 05:14:03;;;;;;;11.35;1.95;;;20.30;96.70;;;;;;5004828;28;20073;-77
2023/10/27 05:16:31;;;;;;;10.75;2.28;;;20.30;96.70;;;;;;5003804;28;20046;-78
2023/10/27 05:18:59;;;;;;;8.65;2.10;;;20.30;96.70;;;;;;5004349;28;20045;-76
2023/10/27 05:21:27;;;;;;;10.45;2.33;;;20.20;96.70;;;;;;5006622;28;20042;-76
2023/10/27 05:24:00;;;;;;;12.07;2.17;;;20.20;96.70;;;;;;5003210;28;20495;-76
2023/10/27 05:26:29;;;;;;;15.85;3.03;;;20.10;96.70;;;;;;5004549;28;20471;-77
2023/10/27 05:28:58;;;;;;;12.00;2.78;;;20.10;96.70;;;;;;5016743;28;20132;-77
2023/10/27 05:31:27;;;;;;;14.65;2.75;;;20.10;96.70;;;;;;5008137;28;20069;-77
2023/10/27 05:33:55;;;;;;;14.35;3.05;;;20.00;96.70;;;;;;5009146;28;20061;-78
2023/10/27 05:36:23;;;;;;;17.27;2.80;;;19.90;96.70;;;;;;5004674;28;20503;-77
2023/10/27 05:38:51;;;;;;;15.20;3.08;;;19.90;96.70;;;;;;5012864;28;20443;-76
2023/10/27 05:41:19;;;;;;;16.55;3.30;;;19.80;96.70;;;;;;5009704;28;20522;-77
2023/10/27 05:43:50;;;;;;;14.73;2.97;;;19.80;96.70;;;;;;5007062;28;20045;-76
2023/10/27 05:46:18;;;;;;;15.98;3.15;;;19.80;96.70;;;;;;5013478;28;20042;-76
2023/10/27 05:48:47;;;;;;;13.98;2.78;;;19.80;96.70;;;;;;5022830;28;20095;-77
2023/10/27 05:51:16;;;;;;;17.10;3.92;;;19.90;96.70;;;;;;5010860;28;20135;-76
2023/10/27 05:53:43;;;;;;;14.10;3.03;;;19.90;96.70;;;;;;4998475;28;20062;-76
2023/10/27 05:56:11;;;;;;;16.25;2.80;;;19.90;96.70;;;;;;5012021;28;20050;-77
2023/10/27 05:58:39;;;;;;;12.50;2.83;;;19.90;96.70;;;;;;5014940;28;20504;-76
2023/10/27 06:01:09;;;;;;;15.30;3.13;;;19.90;96.70;;;;;;5005232;28;20492;-76
2023/10/27 06:03:37;;;;;;;17.02;3.60;;;19.90;96.70;;;;;;4987602;28;20654;-76
2023/10/27 06:06:05;;;;;;;21.02;3.40;;;20.00;96.70;;;;;;5003774;28;20049;-77
2023/10/27 06:08:33;;;;;;;20.70;4.03;;;20.00;96.70;;;;;;5003652;28;20467;-77
2023/10/27 06:11:01;;;;;;;19.55;3.30;;;20.00;96.70;;;;;;5002768;28;20483;-77
2023/10/27 06:13:29;;;;;;;16.85;3.22;;;19.90;96.70;;;;;;5004045;28;20466;-77
2023/10/27 06:15:57;;;;;;;18.83;3.45;;;19.90;96.70;;;;;;5003777;28;20452;-77
2023/10/27 06:18:26;;;;;;;16.23;3.40;;;20.00;96.70;;;;;;5002097;28;20088;-76
2023/10/27 06:20:54;;;;;;;18.95;3.08;;;20.00;96.70;;;;;;5004285;28;20478;-78
2023/10/27 06:23:22;;;;;;;18.65;3.13;;;20.00;96.70;;;;;;5004415;28;20038;-76
2023/10/27 06:25:50;;;;;;;15.48;3.30;;;20.10;96.70;;;;;;5003017;28;20559;-77
2023/10/27 06:28:17;;;;;;;18.23;3.42;;;20.10;96.70;;;;;;4990105;28;20050;-77
2023/10/27 06:30:45;;;;;;;16.88;3.78;;;20.10;96.70;;;;;;4998880;28;20066;-77
2023/10/27 06:33:13;;;;;;;17.88;3.60;;;20.10;96.70;;;;;;5003556;28;20077;-77
2023/10/27 06:35:43;;;;;;;16.70;3.50;;;20.20;96.70;;;;;;4997043;28;20065;-78
2023/10/27 06:38:10;;;;;;;13.80;3.75;;;20.20;96.70;;;;;;4995428;28;20053;-77
2023/10/27 06:40:38;;;;;;;18.42;4.15;;;20.20;96.70;;;;;;5002497;28;20073;-77
2023/10/27 06:43:06;;;;;;;22.58;3.58;;;20.20;96.70;;;;;;5010020;28;20143;-77
2023/10/27 06:45:34;;;;;;;20.15;3.85;;;20.20;96.70;;;;;;5001721;28;20092;-77
2023/10/27 06:48:02;;;;;;;15.13;2.95;;;20.20;96.70;;;;;;5002519;28;20074;-78
2023/10/27 06:50:30;;;;;;;15.02;4.40;;;20.20;96.70;;;;;;4999678;28;20042;-78
2023/10/27 06:53:00;;;;;;;14.98;3.10;;;20.30;96.70;;;;;;5007597;28;20041;-79
2023/10/27 06:55:30;;;;;;;10.82;2.67;;;20.30;96.70;;;;;;5006763;28;20077;-80
2023/10/27 06:57:59;;;;;;;18.17;3.15;;;20.30;96.70;;;;;;5015789;28;20065;-79
2023/10/27 07:00:27;;;;;;;17.02;3.13;;;20.30;96.70;;;;;;4997780;28;20074;-78
2023/10/27 07:02:55;;;;;;;16.73;3.08;;;20.30;96.70;;;;;;5012845;28;20100;-79
2023/10/27 07:05:24;;;;;;;15.82;2.80;;;20.30;96.70;;;;;;5012694;28;20057;-77
2023/10/27 07:07:54;;;;;;;15.75;2.67;;;20.20;96.70;;;;;;5019071;28;20042;-77
2023/10/27 07:10:23;;;;;;;17.58;4.20;;;20.20;96.70;;;;;;5006896;28;20137;-77
2023/10/27 07:12:52;;;;;;;17.33;3.42;;;20.20;96.70;;;;;;5007590;28;20050;-77
2023/10/27 07:15:20;;;;;;;14.98;2.85;;;20.20;96.70;;;;;;5004671;28;20058;-78
2023/10/27 07:17:48;;;;;;;16.92;2.70;;;20.20;96.70;;;;;;5011889;28;20045;-76
2023/10/27 07:20:16;;;;;;;11.27;2.75;;;20.10;96.70;;;;;;5008595;28;20722;-78
2023/10/27 07:22:44;;;;;;;15.80;2.92;;;20.10;96.70;;;;;;5016006;28;20046;-78
2023/10/27 07:25:13;;;;;;;14.52;2.95;;;20.20;96.70;;;;;;5006128;28;20041;-79
2023/10/27 07:27:43;;;;;;;15.40;2.90;;;20.20;96.70;;;;;;5009099;28;20045;-78
2023/10/27 07:30:12;;;;;;;16.48;2.80;;;20.20;96.70;;;;;;5005990;28;20141;-78
2023/10/27 07:32:41;;;;;;;15.65;3.92;;;20.20;96.70;;;;;;5009112;28;20045;-79
2023/10/27 07:35:09;;;;;;;17.10;3.38;;;20.10;96.70;;;;;;5009145;28;20140;-88
2023/10/27 07:37:37;;;;;;;16.70;2.83;;;20.10;96.70;;;;;;5014066;28;20051;-79
2023/10/27 07:40:06;;;;;;;15.65;3.03;;;20.20;96.70;;;;;;5018449;28;20563;-79
2023/10/27 07:42:35;;;;;;;16.42;3.28;;;20.10;96.70;;;;;;5006409;28;20404;-78
2023/10/27 07:45:05;;;;;;;13.57;3.65;;;20.00;96.70;;;;;;5002752;28;20046;-79
2023/10/27 07:47:33;;;;;;;19.45;3.88;;;20.00;96.70;;;;;;5011211;28;20041;-78
2023/10/27 07:50:02;;;;;;;15.68;3.45;;;20.00;96.70;;;;;;5011629;28;20065;-77
2023/10/27 07:52:30;;;;;;;18.90;3.67;;;20.00;96.70;;;;;;5004820;28;20049;-78
2023/10/27 07:55:02;;;;;;;16.67;3.47;;;20.00;96.70;;;;;;5006407;28;20069;-79
2023/10/27 07:57:32;;;;;;;14.40;3.97;;;20.10;96.70;;;;;;5013468;28;20046;-79
2023/10/27 08:00:00;;;;;;;19.17;3.75;;;20.20;96.70;;;;;;5004225;28;20161;-78
2023/10/27 08:02:33;;;;;;;18.38;4.35;;;20.20;96.70;;;;;;5009022;28;20064;-79
2023/10/27 08:05:01;;;;;;;11.73;3.10;;;20.30;96.70;;;;;;5010191;28;20450;-79
2023/10/27 08:07:30;;;;;;;21.33;3.65;;;20.40;96.70;;;;;;5015882;28;20045;-78
2023/10/27 08:09:58;;;;;;;18.33;4.38;;;20.60;96.70;;;;;;5022622;28;20057;-78
2023/10/27 08:12:26;;;;;;;20.92;4.40;;;20.60;96.70;;;;;;5004748;28;20088;-78
2023/10/27 08:14:54;;;;;;;17.40;3.58;;;20.70;96.70;;;;;;5004696;28;20096;-77
2023/10/27 08:17:35;;;;;;;15.07;3.53;;;20.80;96.70;;;;;;5016426;28;20480;-78
2023/10/27 08:20:04;;;;;;;22.30;4.00;;;20.90;96.70;;;;;;5003924;28;20074;-77
2023/10/27 08:22:33;;;;;;;20.67;4.05;;;21.00;96.70;;;;;;5003996;28;20573;-78
2023/10/27 08:25:02;;;;;;;17.75;3.92;;;21.00;96.70;;;;;;5009658;28;20049;-80
2023/10/27 08:27:31;;;;;;;20.10;3.47;;;21.10;96.70;;;;;;5005599;28;20554;-82
2023/10/27 08:29:59;;;;;;;16.35;3.78;;;21.10;96.70;;;;;;5004244;28;20042;-79
2023/10/27 08:32:27;;;;;;;20.35;3.72;;;21.00;96.70;;;;;;5006814;28;20049;-81
2023/10/27 08:34:56;;;;;;;17.88;3.40;;;21.00;96.70;;;;;;5006785;28;20198;-80
2023/10/27 08:37:26;;;;;;;14.80;3.33;;;21.00;96.70;;;;;;5018545;28;20503;-80
2023/10/27 08:39:53;;;;;;;21.00;4.72;;;21.00;96.70;;;;;;5001989;28;20041;-81
2023/10/27 08:42:22;;;;;;;17.75;3.38;;;21.00;96.70;;;;;;5015192;28;20069;-81
2023/10/27 08:44:50;;;;;;;16.17;4.00;;;21.00;96.70;;;;;;5006474;28;20050;-76
2023/10/27 08:47:19;;;;;;;12.60;2.85;;;21.00;96.70;;;;;;5003406;28;20054;-82
2023/10/27 08:49:47;;;;;;;10.77;3.08;;;21.10;96.70;;;;;;5023546;28;20045;-80
2023/10/27 08:52:17;;;;;;;16.60;3.30;;;21.20;96.70;;;;;;5017569;28;20042;-80
2023/10/27 08:54:45;;;;;;;14.90;2.85;;;21.20;96.70;;;;;;5005026;28;20057;-79
2023/10/27 08:57:14;;;;;;;17.67;3.50;;;21.10;96.70;;;;;;5019848;28;20045;-79
2023/10/27 08:59:43;;;;;;;18.35;2.90;;;21.10;96.70;;;;;;5019547;28;20073;-78
2023/10/27 09:02:16;;;;;;;19.27;3.28;;;21.20;96.70;;;;;;5007243;28;20045;-81
2023/10/27 09:04:44;;;;;;;13.98;2.30;;;21.20;96.70;;;;;;5005722;28;20046;-81
2023/10/27 09:07:13;;;;;;;12.60;2.70;;;21.40;96.70;;;;;;4986673;28;20070;-81
2023/10/27 09:09:42;;;;;;;11.52;2.38;;;21.40;96.70;;;;;;5004402;28;20253;-82
2023/10/27 09:12:11;;;;;;;17.42;2.65;;;21.40;96.70;;;;;;5005862;28;20053;-82
2023/10/27 09:14:39;;;;;;;14.93;2.72;;;21.40;96.70;;;;;;5001705;28;20065;-82
2023/10/27 09:17:09;;;;;;;14.90;2.83;;;21.50;96.70;;;;;;5005159;28;20077;-81
2023/10/27 09:19:39;;;;;;;15.48;3.15;;;21.50;96.70;;;;;;5004930;28;20042;-80
2023/10/27 09:22:15;;;;;;;16.23;3.20;;;21.60;96.70;;;;;;4990713;28;20081;-82
2023/10/27 09:24:46;;;;;;;;;;;21.70;96.70;;;;;;5006580;28;20054;-84
2023/10/27 09:27:14;;;;;;;18.02;3.42;;;21.70;96.70;;;;;;5017794;28;20378;-79
2023/10/27 09:29:43;;;;;;;13.45;2.85;;;21.70;96.70;;;;;;5009995;28;20133;-80
2023/10/27 09:32:27;;;;;;;10.02;2.42;;;21.80;96.70;;;;;;5010062;28;20064;-79
2023/10/27 09:35:09;;;;;;;13.38;3.10;;;22.00;96.70;;;;;;5008258;28;20643;-78
2023/10/27 09:37:37;;;;;;;8.20;1.85;;;21.90;96.70;;;;;;5006457;28;20046;-80
2023/10/27 09:40:09;;;;;;;12.15;2.83;;;21.90;96.70;;;;;;5003642;28;20048;-81
2023/10/27 09:42:38;;;;;;;11.85;2.38;;;21.80;96.70;;;;;;4998410;28;20108;-80
2023/10/27 09:45:13;;;;;;;11.25;2.38;;;21.90;96.70;;;;;;5004714;28;20209;-80
2023/10/27 09:47:47;;;;;;;12.73;2.78;;;21.90;96.70;;;;;;5004782;28;20121;-79
2023/10/27 09:50:19;;;;;;;14.48;2.75;;;21.90;96.70;;;;;;5003544;28;20049;-81
2023/10/27 09:52:49;;;;;;;16.00;3.30;;;22.00;96.70;;;;;;4996950;28;20052;-79
2023/10/27 09:55:19;;;;;;;17.85;3.10;;;22.00;96.70;;;;;;5004001;28;20053;-79
2023/10/27 09:57:48;;;;;;;15.80;3.08;;;22.20;96.70;;;;;;5005975;28;20671;-79
2023/10/27 10:00:18;;;;;;;18.65;3.60;;;22.10;96.70;;;;;;5013307;28;20487;-79
2023/10/27 10:02:46;;;;;;;14.52;2.88;;;22.20;96.70;;;;;;5009466;28;20562;-79
2023/10/27 10:05:15;;;;;;;18.13;2.80;;;22.30;96.70;;;;;;4989062;28;20482;-80
2023/10/27 10:07:44;;;;;;;14.20;3.22;;;22.30;96.70;;;;;;5016632;28;20049;-80
2023/10/27 10:10:22;;;;;;;17.38;3.67;;;22.40;96.70;;;;;;4989087;28;20617;-79
2023/10/27 10:13:08;;;;;;;12.85;2.78;;;22.40;96.70;;;;;;4987439;28;20454;-79
2023/10/27 10:15:37;;;;;;;13.95;2.38;;;22.40;96.70;;;;;;5003179;28;20116;-80
2023/10/27 10:18:07;;;;;;;10.48;2.25;;;22.60;96.70;;;;;;5009151;28;20052;-80
2023/10/27 10:20:57;;;;;;;14.60;2.75;;;22.70;96.70;;;;;;5014424;28;20543;-79
2023/10/27 10:23:46;;;;;;;12.70;2.55;;;22.70;96.70;;;;;;5007399;28;20079;-79
2023/10/27 10:26:15;;;;;;;15.05;2.80;;;22.80;96.70;;;;;;5014542;28;20148;-80
2023/10/27 10:28:46;;;;;;;16.52;3.35;;;22.70;96.70;;;;;;5017699;28;20045;-80
2023/10/27 10:31:23;;;;;;;14.68;3.15;;;22.40;96.70;;;;;;5008526;28;20041;-80
2023/10/27 10:34:11;;;;;;;15.27;2.95;;;22.40;96.70;;;;;;5007707;28;20104;-79
2023/10/27 10:36:40;;;;;;;12.85;2.53;;;22.50;96.70;;;;;;5017533;28;20124;-78
2023/10/27 10:39:10;;;;;;;12.13;2.30;;;22.60;96.70;;;;;;5008139;28;20554;-81
2023/10/27 10:42:03;;;;;;;17.38;2.78;;;22.50;96.70;;;;;;5017784;28;20096;-80
2023/10/27 10:44:32;;;;;;;13.90;2.50;;;22.70;96.70;;;;;;5007317;28;20053;-79
2023/10/27 10:47:00;;;;;;;12.73;3.00;;;22.70;96.70;;;;;;5007932;28;20053;-78
2023/10/27 10:49:29;;;;;;;14.27;3.00;;;22.60;96.70;;;;;;5000618;28;20084;-79
2023/10/27 10:51:59;;;;;;;12.20;2.85;;;22.60;96.70;;;;;;5017097;28;20099;-80
2023/10/27 10:54:29;;;;;;;13.15;2.67;;;22.70;96.70;;;;;;5020722;28;20049;-79
2023/10/27 10:57:03;;;;;;;16.73;3.20;;;22.80;96.70;;;;;;5018742;28;20053;-80
2023/10/27 10:59:32;;;;;;;10.43;2.20;;;22.80;96.70;;;;;;5016489;28;20056;-79
2023/10/27 11:02:00;;;;;;;12.32;2.30;;;22.90;96.70;;;;;;5016304;28;20050;-78
2023/10/27 11:04:29;;;;;;;9.68;2.55;;;23.00;96.70;;;;;;5021975;28;20050;-80
2023/10/27 11:07:09;;;;;;;11.95;2.85;;;23.00;96.70;;;;;;5007586;28;20057;-80
2023/10/27 11:09:38;;;;;;;12.80;2.67;;;22.80;96.70;;;;;;5008585;28;20083;-80
2023/10/27 11:12:23;;;;;;;11.43;2.35;;;22.80;96.70;;;;;;5002262;28;20046;-79
2023/10/27 11:14:51;;;;;;;10.95;2.92;;;22.90;96.70;;;;;;5007889;28;20066;-78
2023/10/27 11:17:19;;;;;;;13.05;2.40;;;22.90;96.70;;;;;;4999814;28;20808;-79
2023/10/27 11:19:54;;;;;;;12.90;2.67;;;23.00;96.70;;;;;;5007992;28;20120;-80
2023/10/27 11:22:24;;;;;;;13.35;2.90;;;23.00;96.70;;;;;;5008917;28;20438;-79
2023/10/27 11:24:52;;;;;;;14.15;2.92;;;23.00;96.70;;;;;;5017452;28;20474;-80
2023/10/27 11:27:26;;;;;;;12.55;2.88;;;23.00;96.70;;;;;;5019458;28;20662;-80
2023/10/27 11:29:58;;;;;;;13.70;2.75;;;22.60;96.70;;;;;;5010617;28;20042;-80
2023/10/27 11:32:27;;;;;;;13.00;2.60;;;22.50;96.70;;;;;;4999387;28;20051;-78
2023/10/27 11:34:57;;;;;;;13.88;2.60;;;22.40;96.70;;;;;;5014400;28;20559;-79
2023/10/27 11:37:25;;;;;;;12.32;2.42;;;22.30;96.70;;;;;;5008441;28;20067;-77
2023/10/27 11:39:54;;;;;;;12.50;2.55;;;22.20;96.70;;;;;;5015251;28;20439;-79
2023/10/27 11:42:22;;;;;;;16.27;2.85;;;22.10;96.70;;;;;;5007358;28;20516;-79
2023/10/27 11:44:51;;;;;;;17.15;3.40;;;22.20;96.70;;;;;;5015049;28;20042;-80
2023/10/27 11:47:20;;;;;;;14.68;3.10;;;22.20;96.70;;;;;;5005973;28;20065;-79
2023/10/27 11:49:48;;;;;;;12.15;2.35;;;22.00;96.70;;;;;;5005764;28;20137;-79
2023/10/27 11:52:19;;;;;;;16.27;3.40;;;22.20;96.70;;;;;;5011378;28;20144;-79
2023/10/27 11:54:47;;;;;;;13.23;2.80;;;22.50;96.70;;;;;;5010982;28;20042;-78
2023/10/27 11:57:15;;;;;;;15.77;3.05;;;22.60;96.70;;;;;;5005784;28;20112;-79
2023/10/27 11:59:43;;;;;;;15.10;2.83;;;22.60;96.70;;;;;;5005016;28;20053;-80
2023/10/27 12:02:13;;;;;;;12.98;2.88;;;22.50;96.70;;;;;;5006955;28;20556;-79
2023/10/27 12:04:41;;;;;;;10.00;2.47;;;22.40;96.70;;;;;;5012971;28;20412;-78
2023/10/27 12:07:11;;;;;;;18.55;3.28;;;22.20;96.70;;;;;;5000149;28;20078;-78
2023/10/27 12:09:39;;;;;;;15.13;2.75;;;22.20;96.70;;;;;;5004627;28;20034;-78
2023/10/27 12:12:09;;;;;;;21.98;3.50;;;22.10;96.70;;;;;;5014327;28;20037;-79
2023/10/27 12:14:37;;;;;;;16.65;3.40;;;22.10;96.70;;;;;;4986640;28;20054;-80
2023/10/27 12:17:06;;;;;;;14.13;3.58;;;22.30;96.70;;;;;;5007223;28;20049;-80
2023/10/27 12:19:36;;;;;;;12.85;3.20;;;22.40;96.70;;;;;;5011291;28;20128;-78
2023/10/27 12:22:05;;;;;;;16.67;3.78;;;22.50;96.70;;;;;;5015931;28;20069;-79
2023/10/27 12:24:33;;;;;;;19.38;2.83;;;22.40;96.70;;;;;;5015961;28;20072;-80
2023/10/27 12:27:04;;;;;;;13.93;3.13;;;22.70;96.70;;;;;;5011052;28;20046;-80
2023/10/27 12:29:32;;;;;;;16.92;3.38;;;22.70;96.70;;;;;;5007222;28;20080;-80
2023/10/27 12:32:00;;;;;;;17.80;3.65;;;22.70;96.70;;;;;;5011400;28;20053;-79
2023/10/27 12:34:28;;;;;;;17.50;3.15;;;22.80;96.70;;;;;;5023069;28;20053;-79
2023/10/27 12:36:59;;;;;;;16.17;3.45;;;22.70;96.70;;;;;;5009365;28;20049;-80
2023/10/27 12:39:28;;;;;;;14.18;3.38;;;22.40;96.70;;;;;;5004170;28;20050;-79
2023/10/27 12:41:56;;;;;;;13.77;3.47;;;22.30;96.70;;;;;;5000826;28;20041;-79
2023/10/27 12:44:24;;;;;;;16.35;3.50;;;22.10;96.70;;;;;;5004635;28;20058;-80
2023/10/27 12:46:52;;;;;;;18.10;3.65;;;21.80;96.70;;;;;;5004025;28;20038;-79
2023/10/27 12:49:20;;;;;;;13.55;3.30;;;21.80;96.70;;;;;;5005971;28;20049;-80